sensor_id;sensor_type;location;lat;lon;timestamp;pressure;altitude;pressure_sealevel;temperature;humidity
60015;BME280;45867;52.480;6.056;2023-05-09T00:00:50;101562.91;;;13.79;100.00
60015;BME280;45867;52.480;6.056;2023-05-09T00:03:15;101560.50;;;13.77;100.00
60015;BME280;45867;52.480;6.056;2023-05-09T00:05:40;101552.81;;;13.71;100.00
60015;BME280;45867;52.480;6.056;2023-05-09T00:08:06;101549.34;;;13.70;100.00
60015;BME280;45867;52.480;6.056;2023-05-09T00:10:31;101558.41;;;13.64;100.00
60015;BME280;45867;52.480;6.056;2023-05-09T00:12:57;101556.81;;;13.58;100.00
60015;BME280;45867;52.480;6.056;2023-05-09T00:15:23;101553.09;;;13.54;100.00
60015;BME280;45867;52.480;6.056;2023-05-09T00:17:49;101550.69;;;13.47;100.00
60015;BME280;45867;52.480;6.056;2023-05-09T00:20:15;101551.75;;;13.51;100.00
60015;BME280;45867;52.480;6.056;2023-05-09T00:22:40;101548.03;;;13.47;100.00
60015;BME280;45867;52.480;6.056;2023-05-09T00:25:07;101545.09;;;13.44;100.00
60015;BME280;45867;52.480;6.056;2023-05-09T00:27:33;101543.53;;;13.43;100.00
60015;BME280;45867;52.480;6.056;2023-05-09T00:29:58;101537.91;;;13.39;100.00
60015;BME280;45867;52.480;6.056;2023-05-09T00:32:24;101539.78;;;13.39;100.00
60015;BME280;45867;52.480;6.056;2023-05-09T00:34:50;101533.94;;;13.31;100.00
60015;BME280;45867;52.480;6.056;2023-05-09T00:37:15;101537.41;;;13.32;100.00
60015;BME280;45867;52.480;6.056;2023-05-09T00:39:43;101527.28;;;13.29;100.00
60015;BME280;45867;52.480;6.056;2023-05-09T00:42:08;101527.78;;;13.31;100.00
60015;BME280;45867;52.480;6.056;2023-05-09T00:44:33;101522.22;;;13.32;100.00
60015;BME280;45867;52.480;6.056;2023-05-09T00:46:59;101521.97;;;13.29;100.00
60015;BME280;45867;52.480;6.056;2023-05-09T00:49:24;101513.69;;;13.36;100.00
60015;BME280;45867;52.480;6.056;2023-05-09T00:51:50;101515.03;;;13.38;100.00
60015;BME280;45867;52.480;6.056;2023-05-09T00:54:15;101503.03;;;13.36;100.00
60015;BME280;45867;52.480;6.056;2023-05-09T00:56:41;101496.41;;;13.38;100.00
60015;BME280;45867;52.480;6.056;2023-05-09T00:59:06;101483.09;;;13.33;100.00
60015;BME280;45867;52.480;6.056;2023-05-09T01:01:31;101495.84;;;13.36;100.00
60015;BME280;45867;52.480;6.056;2023-05-09T01:03:57;101494.53;;;13.33;100.00
60015;BME280;45867;52.480;6.056;2023-05-09T01:06:31;101484.69;;;13.29;100.00
60015;BME280;45867;52.480;6.056;2023-05-09T01:14:43;101476.19;;;13.32;100.00
60015;BME280;45867;52.480;6.056;2023-05-09T01:20:16;101466.31;;;13.32;100.00
60015;BME280;45867;52.480;6.056;2023-05-09T01:22:47;101464.44;;;13.28;100.00
60015;BME280;45867;52.480;6.056;2023-05-09T01:25:37;101470.81;;;13.22;100.00
60015;BME280;45867;52.480;6.056;2023-05-09T01:28:13;101467.13;;;13.18;100.00
60015;BME280;45867;52.480;6.056;2023-05-09T01:30:43;101461.25;;;13.16;100.00
60015;BME280;45867;52.480;6.056;2023-05-09T01:33:13;101460.19;;;13.17;100.00
60015;BME280;45867;52.480;6.056;2023-05-09T01:35:43;101456.97;;;13.20;100.00
60015;BME280;45867;52.480;6.056;2023-05-09T01:38:13;101453.28;;;13.21;100.00
60015;BME280;45867;52.480;6.056;2023-05-09T01:40:41;101452.19;;;13.22;100.00
60015;BME280;45867;52.480;6.056;2023-05-09T01:43:09;101446.09;;;13.31;100.00
60015;BME280;45867;52.480;6.056;2023-05-09T01:45:36;101449.28;;;13.33;100.00
60015;BME280;45867;52.480;6.056;2023-05-09T01:48:06;101442.63;;;13.31;100.00
60015;BME280;45867;52.480;6.056;2023-05-09T01:50:34;101440.78;;;13.31;100.00
60015;BME280;45867;52.480;6.056;2023-05-09T01:53:01;101446.09;;;13.31;100.00
60015;BME280;45867;52.480;6.056;2023-05-09T01:55:29;101445.03;;;13.38;100.00
60015;BME280;45867;52.480;6.056;2023-05-09T01:57:57;101437.03;;;13.38;100.00
60015;BME280;45867;52.480;6.056;2023-05-09T02:00:23;101433.31;;;13.33;100.00
60015;BME280;45867;52.480;6.056;2023-05-09T02:02:50;101442.91;;;13.40;100.00
60015;BME280;45867;52.480;6.056;2023-05-09T02:05:16;101427.72;;;13.30;100.00
60015;BME280;45867;52.480;6.056;2023-05-09T02:07:45;101431.41;;;13.39;100.00
60015;BME280;45867;52.480;6.056;2023-05-09T02:10:11;101434.91;;;13.40;100.00
60015;BME280;45867;52.480;6.056;2023-05-09T02:12:37;101425.59;;;13.37;100.00
60015;BME280;45867;52.480;6.056;2023-05-09T02:15:04;101424.25;;;13.40;100.00
60015;BME280;45867;52.480;6.056;2023-05-09T02:17:33;101430.09;;;13.42;100.00
60015;BME280;45867;52.480;6.056;2023-05-09T02:19:58;101428.75;;;13.44;100.00
60015;BME280;45867;52.480;6.056;2023-05-09T02:22:24;101427.16;;;13.43;100.00
60015;BME280;45867;52.480;6.056;2023-05-09T02:24:49;101417.56;;;13.47;100.00
60015;BME280;45867;52.480;6.056;2023-05-09T02:27:15;101415.44;;;13.44;100.00
60015;BME280;45867;52.480;6.056;2023-05-09T02:29:45;101392.56;;;13.43;100.00
60015;BME280;45867;52.480;6.056;2023-05-09T02:32:21;101377.13;;;13.45;100.00
60015;BME280;45867;52.480;6.056;2023-05-09T02:34:47;101376.31;;;13.45;100.00
60015;BME280;45867;52.480;6.056;2023-05-09T02:37:15;101376.59;;;13.43;100.00
60015;BME280;45867;52.480;6.056;2023-05-09T02:39:41;101373.94;;;13.38;100.00
60015;BME280;45867;52.480;6.056;2023-05-09T02:42:09;101367.53;;;13.39;100.00
60015;BME280;45867;52.480;6.056;2023-05-09T02:44:34;101372.34;;;13.42;100.00
60015;BME280;45867;52.480;6.056;2023-05-09T02:47:01;101367.81;;;13.43;100.00
60015;BME280;45867;52.480;6.056;2023-05-09T02:49:26;101354.22;;;13.44;100.00
60015;BME280;45867;52.480;6.056;2023-05-09T02:51:52;101350.50;;;13.45;100.00
60015;BME280;45867;52.480;6.056;2023-05-09T02:54:17;101337.72;;;13.42;100.00
60015;BME280;45867;52.480;6.056;2023-05-09T02:56:42;101343.31;;;13.46;100.00
60015;BME280;45867;52.480;6.056;2023-05-09T02:59:08;101338.22;;;13.49;100.00
60015;BME280;45867;52.480;6.056;2023-05-09T03:01:33;101333.97;;;13.48;100.00
60015;BME280;45867;52.480;6.056;2023-05-09T03:03:58;101329.19;;;13.45;100.00
60015;BME280;45867;52.480;6.056;2023-05-09T03:06:24;101327.88;;;13.43;100.00
60015;BME280;45867;52.480;6.056;2023-05-09T03:08:49;101333.47;;;13.41;100.00
60015;BME280;45867;52.480;6.056;2023-05-09T03:11:14;101322.81;;;13.41;100.00
60015;BME280;45867;52.480;6.056;2023-05-09T03:13:40;101333.69;;;13.45;100.00
60015;BME280;45867;52.480;6.056;2023-05-09T03:16:05;101330.00;;;13.46;100.00
60015;BME280;45867;52.480;6.056;2023-05-09T03:18:31;101315.06;;;13.45;100.00
60015;BME280;45867;52.480;6.056;2023-05-09T03:20:56;101315.06;;;13.45;100.00
60015;BME280;45867;52.480;6.056;2023-05-09T03:23:21;101320.38;;;13.45;100.00
60015;BME280;45867;52.480;6.056;2023-05-09T03:25:47;101312.41;;;13.45;100.00
60015;BME280;45867;52.480;6.056;2023-05-09T03:28:12;101323.06;;;13.45;100.00
60015;BME280;45867;52.480;6.056;2023-05-09T03:30:38;101306.81;;;13.46;100.00
60015;BME280;45867;52.480;6.056;2023-05-09T03:33:03;101306.56;;;13.48;100.00
60015;BME280;45867;52.480;6.056;2023-05-09T03:35:29;101303.91;;;13.48;100.00
60015;BME280;45867;52.480;6.056;2023-05-09T03:37:54;101303.91;;;13.48;100.00
60015;BME280;45867;52.480;6.056;2023-05-09T03:40:20;101304.41;;;13.50;100.00
60015;BME280;45867;52.480;6.056;2023-05-09T03:42:45;101302.03;;;13.48;100.00
60015;BME280;45867;52.480;6.056;2023-05-09T03:45:10;101297.75;;;13.47;100.00
60015;BME280;45867;52.480;6.056;2023-05-09T03:47:36;101292.16;;;13.49;100.00
60015;BME280;45867;52.480;6.056;2023-05-09T03:50:01;101282.59;;;13.48;100.00
60015;BME280;45867;52.480;6.056;2023-05-09T03:52:28;101292.16;;;13.49;100.00
60015;BME280;45867;52.480;6.056;2023-05-09T03:54:53;101287.41;;;13.46;100.00
60015;BME280;45867;52.480;6.056;2023-05-09T03:57:18;101285.00;;;13.44;100.00
60015;BME280;45867;52.480;6.056;2023-05-09T03:59:44;101290.59;;;13.43;100.00
60015;BME280;45867;52.480;6.056;2023-05-09T04:02:09;101289.50;;;13.49;100.00
60015;BME280;45867;52.480;6.056;2023-05-09T04:04:35;101284.72;;;13.46;100.00
60015;BME280;45867;52.480;6.056;2023-05-09T04:07:00;101281.78;;;13.47;100.00
60015;BME280;45867;52.480;6.056;2023-05-09T04:09:26;101282.06;;;13.46;100.00
60015;BME280;45867;52.480;6.056;2023-05-09T04:11:52;101282.84;;;13.46;100.00
60015;BME280;45867;52.480;6.056;2023-05-09T04:14:17;101282.84;;;13.46;100.00
60015;BME280;45867;52.480;6.056;2023-05-09T04:16:42;101281.78;;;13.47;100.00
60015;BME280;45867;52.480;6.056;2023-05-09T04:19:08;101275.94;;;13.45;100.00
60015;BME280;45867;52.480;6.056;2023-05-09T04:21:33;101274.88;;;13.41;100.00
60015;BME280;45867;52.480;6.056;2023-05-09T04:23:59;101275.66;;;13.47;100.00
60015;BME280;45867;52.480;6.056;2023-05-09T04:26:24;101259.97;;;13.45;100.00
60015;BME280;45867;52.480;6.056;2023-05-09T04:28:50;101257.28;;;13.50;100.00
60015;BME280;45867;52.480;6.056;2023-05-09T04:31:17;101261.25;;;13.53;100.00
60015;BME280;45867;52.480;6.056;2023-05-09T04:33:43;101246.34;;;13.52;100.00
60015;BME280;45867;52.480;6.056;2023-05-09T04:36:08;101249.53;;;13.54;100.00
60015;BME280;45867;52.480;6.056;2023-05-09T04:38:34;101253.03;;;13.49;100.00
60015;BME280;45867;52.480;6.056;2023-05-09T04:40:59;101245.81;;;13.50;100.00
60015;BME280;45867;52.480;6.056;2023-05-09T04:43:25;101237.03;;;13.54;100.00
60015;BME280;45867;52.480;6.056;2023-05-09T04:45:52;101236.47;;;13.58;100.00
60015;BME280;45867;52.480;6.056;2023-05-09T04:48:17;101228.00;;;13.50;100.00
60015;BME280;45867;52.480;6.056;2023-05-09T04:50:42;101226.94;;;13.46;100.00
60015;BME280;45867;52.480;6.056;2023-05-09T04:53:08;101221.38;;;13.43;100.00
60015;BME280;45867;52.480;6.056;2023-05-09T04:55:33;101223.22;;;13.47;100.00
60015;BME280;45867;52.480;6.056;2023-05-09T04:57:59;101218.16;;;13.46;100.00
60015;BME280;45867;52.480;6.056;2023-05-09T05:00:25;101209.69;;;13.39;100.00
60015;BME280;45867;52.480;6.056;2023-05-09T05:02:50;101210.44;;;13.44;100.00
60015;BME280;45867;52.480;6.056;2023-05-09T05:05:15;101224.25;;;13.51;100.00
60015;BME280;45867;52.480;6.056;2023-05-09T05:07:41;101219.72;;;13.52;100.00
60015;BME280;45867;52.480;6.056;2023-05-09T05:10:06;101215.72;;;13.54;100.00
60015;BME280;45867;52.480;6.056;2023-05-09T05:12:32;101222.91;;;13.54;100.00
60015;BME280;45867;52.480;6.056;2023-05-09T05:14:57;101219.72;;;13.52;100.00
60015;BME280;45867;52.480;6.056;2023-05-09T05:17:23;101217.28;;;13.55;100.00
60015;BME280;45867;52.480;6.056;2023-05-09T05:19:48;101218.59;;;13.63;100.00
60015;BME280;45867;52.480;6.056;2023-05-09T05:22:14;101220.09;;;13.74;100.00
60015;BME280;45867;52.480;6.056;2023-05-09T05:24:39;101208.41;;;13.75;100.00
60015;BME280;45867;52.480;6.056;2023-05-09T05:27:04;101183.94;;;13.68;100.00
60015;BME280;45867;52.480;6.056;2023-05-09T05:29:30;101198.16;;;13.88;100.00
60015;BME280;45867;52.480;6.056;2023-05-09T05:31:55;101189.16;;;13.84;100.00
60015;BME280;45867;52.480;6.056;2023-05-09T05:34:20;101180.22;;;13.98;100.00
60015;BME280;45867;52.480;6.056;2023-05-09T05:36:46;101182.00;;;14.08;100.00
60015;BME280;45867;52.480;6.056;2023-05-09T05:39:11;101184.69;;;14.08;100.00
60015;BME280;45867;52.480;6.056;2023-05-09T05:41:43;101178.66;;;13.97;100.00
60015;BME280;45867;52.480;6.056;2023-05-09T05:44:08;101178.75;;;14.16;100.00
60015;BME280;45867;52.480;6.056;2023-05-09T05:46:33;101161.06;;;14.26;100.00
60015;BME280;45867;52.480;6.056;2023-05-09T05:48:59;101158.59;;;14.29;100.00
60015;BME280;45867;52.480;6.056;2023-05-09T05:51:24;101165.38;;;14.46;100.00
60015;BME280;45867;52.480;6.056;2023-05-09T05:53:50;101159.66;;;14.33;100.00
60015;BME280;45867;52.480;6.056;2023-05-09T05:56:15;101152.78;;;14.27;100.00
60015;BME280;45867;52.480;6.056;2023-05-09T05:58:41;101153.63;;;14.23;100.00
60015;BME280;45867;52.480;6.056;2023-05-09T06:01:06;101145.84;;;14.26;100.00
60015;BME280;45867;52.480;6.056;2023-05-09T06:03:31;101145.53;;;14.33;100.00
60015;BME280;45867;52.480;6.056;2023-05-09T06:06:09;101149.25;;;14.32;100.00
60015;BME280;45867;52.480;6.056;2023-05-09T06:08:35;101142.66;;;14.48;100.00
60015;BME280;45867;52.480;6.056;2023-05-09T06:11:00;101140.38;;;14.65;100.00
60015;BME280;45867;52.480;6.056;2023-05-09T06:13:26;101146.56;;;14.61;100.00
60015;BME280;45867;52.480;6.056;2023-05-09T06:15:54;101136.34;;;14.68;100.00
60015;BME280;45867;52.480;6.056;2023-05-09T06:18:20;101132.31;;;14.71;100.00
60015;BME280;45867;52.480;6.056;2023-05-09T06:20:45;101126.13;;;14.75;100.00
60015;BME280;45867;52.480;6.056;2023-05-09T06:23:11;101121.00;;;14.79;100.00
60015;BME280;45867;52.480;6.056;2023-05-09T06:25:36;101112.06;;;14.88;100.00
60015;BME280;45867;52.480;6.056;2023-05-09T06:28:01;101117.28;;;14.99;100.00
60015;BME280;45867;52.480;6.056;2023-05-09T06:30:27;101117.19;;;15.04;100.00
60015;BME280;45867;52.480;6.056;2023-05-09T06:32:53;101114.09;;;14.97;100.00
60015;BME280;45867;52.480;6.056;2023-05-09T06:35:18;101111.88;;;15.04;100.00
60015;BME280;45867;52.480;6.056;2023-05-09T06:37:44;101110.56;;;15.01;100.00
60015;BME280;45867;52.480;6.056;2023-05-09T06:40:09;101105.63;;;15.08;100.00
60015;BME280;45867;52.480;6.056;2023-05-09T06:42:34;101112.50;;;15.15;100.00
60015;BME280;45867;52.480;6.056;2023-05-09T06:45:00;101103.34;;;15.21;100.00
60015;BME280;45867;52.480;6.056;2023-05-09T06:47:25;101122.81;;;15.21;100.00
60015;BME280;45867;52.480;6.056;2023-05-09T06:49:50;101119.09;;;15.22;100.00
60015;BME280;45867;52.480;6.056;2023-05-09T06:52:16;101117.06;;;15.14;100.00
60015;BME280;45867;52.480;6.056;2023-05-09T06:54:41;101115.25;;;15.28;100.00
60015;BME280;45867;52.480;6.056;2023-05-09T06:57:06;101112.31;;;15.44;100.00
60015;BME280;45867;52.480;6.056;2023-05-09T06:59:32;101097.19;;;15.39;100.00
60015;BME280;45867;52.480;6.056;2023-05-09T07:01:58;101112.81;;;15.46;100.00
60015;BME280;45867;52.480;6.056;2023-05-09T07:04:23;101111.66;;;15.52;100.00
60015;BME280;45867;52.480;6.056;2023-05-09T07:06:48;101109.34;;;15.64;100.00
60015;BME280;45867;52.480;6.056;2023-05-09T07:09:14;101120.09;;;15.78;100.00
60015;BME280;45867;52.480;6.056;2023-05-09T07:11:43;101116.13;;;15.89;100.00
60015;BME280;45867;52.480;6.056;2023-05-09T07:14:08;101115.78;;;15.96;100.00
60015;BME280;45867;52.480;6.056;2023-05-09T07:16:33;101120.69;;;15.89;100.00
60015;BME280;45867;52.480;6.056;2023-05-09T07:18:58;101124.25;;;15.84;100.00
60015;BME280;45867;52.480;6.056;2023-05-09T07:21:24;101123.16;;;15.71;100.00
60015;BME280;45867;52.480;6.056;2023-05-09T07:23:49;101126.41;;;15.82;100.00
60015;BME280;45867;52.480;6.056;2023-05-09T07:26:15;101122.09;;;16.00;100.00
60015;BME280;45867;52.480;6.056;2023-05-09T07:28:40;101128.09;;;15.78;100.00
60015;BME280;45867;52.480;6.056;2023-05-09T07:31:06;101133.19;;;15.93;100.00
60015;BME280;45867;52.480;6.056;2023-05-09T07:33:31;101132.69;;;16.05;100.00
60015;BME280;45867;52.480;6.056;2023-05-09T07:35:58;101139.09;;;15.90;100.00
60015;BME280;45867;52.480;6.056;2023-05-09T07:38:32;101121.28;;;15.86;100.00
60015;BME280;45867;52.480;6.056;2023-05-09T07:40:57;101135.75;;;15.98;100.00
60015;BME280;45867;52.480;6.056;2023-05-09T07:43:25;101135.63;;;15.90;100.00
60015;BME280;45867;52.480;6.056;2023-05-09T07:45:51;101134.69;;;16.00;100.00
60015;BME280;45867;52.480;6.056;2023-05-09T07:48:16;101143.69;;;16.04;100.00
60015;BME280;45867;52.480;6.056;2023-05-09T07:50:42;101141.13;;;16.12;100.00
60015;BME280;45867;52.480;6.056;2023-05-09T07:53:07;101141.13;;;16.12;100.00
60015;BME280;45867;52.480;6.056;2023-05-09T07:55:32;101141.22;;;16.07;100.00
60015;BME280;45867;52.480;6.056;2023-05-09T07:57:58;101134.25;;;15.92;100.00
60015;BME280;45867;52.480;6.056;2023-05-09T08:00:23;101147.72;;;16.01;100.00
60015;BME280;45867;52.480;6.056;2023-05-09T08:02:50;101145.06;;;16.01;100.00
60015;BME280;45867;52.480;6.056;2023-05-09T08:05:15;101146.94;;;16.01;100.00
60015;BME280;45867;52.480;6.056;2023-05-09T08:07:41;101137.47;;;16.22;100.00
60015;BME280;45867;52.480;6.056;2023-05-09T08:10:07;101131.16;;;16.18;100.00
60015;BME280;45867;52.480;6.056;2023-05-09T08:12:33;101128.25;;;16.14;100.00
60015;BME280;45867;52.480;6.056;2023-05-09T08:14:58;101128.84;;;16.39;100.00
60015;BME280;45867;52.480;6.056;2023-05-09T08:17:23;101132.81;;;16.41;100.00
60015;BME280;45867;52.480;6.056;2023-05-09T08:19:49;101127.47;;;16.28;100.00
60015;BME280;45867;52.480;6.056;2023-05-09T08:22:18;101133.72;;;16.64;100.00
60015;BME280;45867;52.480;6.056;2023-05-09T08:24:43;101129.75;;;16.34;100.00
60015;BME280;45867;52.480;6.056;2023-05-09T08:27:09;101131.63;;;16.20;100.00
60015;BME280;45867;52.480;6.056;2023-05-09T08:29:37;101122.63;;;16.30;100.00
60015;BME280;45867;52.480;6.056;2023-05-09T08:32:03;101118.03;;;16.72;100.00
60015;BME280;45867;52.480;6.056;2023-05-09T08:34:28;101127.56;;;17.14;100.00
60015;BME280;45867;52.480;6.056;2023-05-09T08:36:55;101128.28;;;17.06;100.00
60015;BME280;45867;52.480;6.056;2023-05-09T08:39:21;101118.16;;;17.39;100.00
60015;BME280;45867;52.480;6.056;2023-05-09T08:41:46;101124.78;;;17.42;100.00
60015;BME280;45867;52.480;6.056;2023-05-09T08:44:12;101123.31;;;17.58;100.00
60015;BME280;45867;52.480;6.056;2023-05-09T08:46:38;101130.94;;;17.20;100.00
60015;BME280;45867;52.480;6.056;2023-05-09T08:49:10;101132.94;;;17.37;100.00
60015;BME280;45867;52.480;6.056;2023-05-09T08:51:36;101131.66;;;17.34;100.00
60015;BME280;45867;52.480;6.056;2023-05-09T08:54:02;101136.66;;;17.72;100.00
60015;BME280;45867;52.480;6.056;2023-05-09T08:56:29;101136.03;;;17.75;100.00
60015;BME280;45867;52.480;6.056;2023-05-09T08:58:55;101147.69;;;17.48;100.00
60015;BME280;45867;52.480;6.056;2023-05-09T09:01:21;101142.41;;;17.79;100.00
60015;BME280;45867;52.480;6.056;2023-05-09T09:03:47;101141.91;;;18.08;100.00
60015;BME280;45867;52.480;6.056;2023-05-09T09:06:14;101145.50;;;18.35;100.00
60015;BME280;45867;52.480;6.056;2023-05-09T09:08:40;101149.16;;;18.39;100.00
60015;BME280;45867;52.480;6.056;2023-05-09T09:11:09;101149.94;;;18.39;100.00
60015;BME280;45867;52.480;6.056;2023-05-09T09:13:37;101149.72;;;18.27;100.00
60015;BME280;45867;52.480;6.056;2023-05-09T09:16:05;101148.97;;;18.44;100.00
60015;BME280;45867;52.480;6.056;2023-05-09T09:18:32;101157.34;;;18.42;100.00
60015;BME280;45867;52.480;6.056;2023-05-09T09:21:11;101152.25;;;18.32;100.00
60015;BME280;45867;52.480;6.056;2023-05-09T09:23:40;101148.69;;;18.54;100.00
60015;BME280;45867;52.480;6.056;2023-05-09T09:26:07;101150.84;;;18.75;100.00
60015;BME280;45867;52.480;6.056;2023-05-09T09:28:33;101138.06;;;18.32;100.00
60015;BME280;45867;52.480;6.056;2023-05-09T09:30:59;101153.56;;;18.44;100.00
60015;BME280;45867;52.480;6.056;2023-05-09T09:33:26;101155.81;;;18.59;100.00
60015;BME280;45867;52.480;6.056;2023-05-09T09:35:54;101154.34;;;18.44;100.00
60015;BME280;45867;52.480;6.056;2023-05-09T09:38:21;101162.75;;;18.51;100.00
60015;BME280;45867;52.480;6.056;2023-05-09T09:40:57;101162.72;;;18.42;100.00
60015;BME280;45867;52.480;6.056;2023-05-09T09:43:29;101154.75;;;18.20;100.00
60015;BME280;45867;52.480;6.056;2023-05-09T09:45:56;101156.13;;;18.09;100.00
60015;BME280;45867;52.480;6.056;2023-05-09T09:48:25;101143.09;;;17.93;100.00
60015;BME280;45867;52.480;6.056;2023-05-09T09:50:54;101156.16;;;17.64;100.00
60015;BME280;45867;52.480;6.056;2023-05-09T09:53:21;101161.50;;;17.64;100.00
60015;BME280;45867;52.480;6.056;2023-05-09T09:55:49;101150.84;;;17.50;100.00
60015;BME280;45867;52.480;6.056;2023-05-09T09:58:16;101150.28;;;17.62;100.00
60015;BME280;45867;52.480;6.056;2023-05-09T10:00:42;101154.19;;;17.78;100.00
60015;BME280;45867;52.480;6.056;2023-05-09T10:03:13;101151.03;;;17.53;100.00
60015;BME280;45867;52.480;6.056;2023-05-09T10:05:39;101145.19;;;17.51;100.00
60015;BME280;45867;52.480;6.056;2023-05-09T10:08:05;101148.16;;;17.27;100.00
60015;BME280;45867;52.480;6.056;2023-05-09T10:10:33;101150.41;;;17.34;100.00
60015;BME280;45867;52.480;6.056;2023-05-09T10:13:07;101147.00;;;17.20;100.00
60015;BME280;45867;52.480;6.056;2023-05-09T10:15:34;101144.31;;;17.20;100.00
60015;BME280;45867;52.480;6.056;2023-05-09T10:18:00;101151.50;;;17.11;100.00
60015;BME280;45867;52.480;6.056;2023-05-09T10:20:28;101149.41;;;17.07;100.00
60015;BME280;45867;52.480;6.056;2023-05-09T10:22:56;101147.69;;;16.89;100.00
60015;BME280;45867;52.480;6.056;2023-05-09T10:25:38;101148.72;;;17.02;100.00
60015;BME280;45867;52.480;6.056;2023-05-09T10:28:10;101136.50;;;17.09;100.00
60015;BME280;45867;52.480;6.056;2023-05-09T10:33:23;101131.34;;;17.13;100.00
60015;BME280;45867;52.480;6.056;2023-05-09T10:35:50;101132.47;;;16.98;100.00
60015;BME280;45867;52.480;6.056;2023-05-09T10:38:17;101125.88;;;17.18;100.00
60015;BME280;45867;52.480;6.056;2023-05-09T10:40:45;101120.09;;;17.25;100.00
60015;BME280;45867;52.480;6.056;2023-05-09T10:43:12;101126.19;;;17.17;100.00
60015;BME280;45867;52.480;6.056;2023-05-09T10:45:38;101110.91;;;17.17;100.00
60015;BME280;45867;52.480;6.056;2023-05-09T10:48:05;101115.66;;;17.20;100.00
60015;BME280;45867;52.480;6.056;2023-05-09T10:50:33;101113.91;;;17.02;100.00
60015;BME280;45867;52.480;6.056;2023-05-09T10:55:47;101101.59;;;17.15;100.00
60015;BME280;45867;52.480;6.056;2023-05-09T10:58:21;101108.44;;;17.43;100.00
60015;BME280;45867;52.480;6.056;2023-05-09T11:00:49;101109.22;;;17.44;100.00
60015;BME280;45867;52.480;6.056;2023-05-09T11:03:15;101102.09;;;17.39;100.00
60015;BME280;45867;52.480;6.056;2023-05-09T11:05:43;101099.28;;;17.44;100.00
60015;BME280;45867;52.480;6.056;2023-05-09T11:08:28;101093.84;;;17.81;100.00
60015;BME280;45867;52.480;6.056;2023-05-09T11:10:58;101096.59;;;17.75;100.00
60015;BME280;45867;52.480;6.056;2023-05-09T11:13:36;101086.03;;;17.93;100.00
60015;BME280;45867;52.480;6.056;2023-05-09T11:16:03;101096.59;;;17.75;100.00
60015;BME280;45867;52.480;6.056;2023-05-09T11:18:30;101092.44;;;17.83;100.00
60015;BME280;45867;52.480;6.056;2023-05-09T11:20:56;101097.44;;;17.76;100.00
60015;BME280;45867;52.480;6.056;2023-05-09T11:23:25;101100.06;;;17.45;100.00
60015;BME280;45867;52.480;6.056;2023-05-09T11:25:51;101098.44;;;17.35;100.00
60015;BME280;45867;52.480;6.056;2023-05-09T11:28:31;101106.81;;;17.20;100.00
60015;BME280;45867;52.480;6.056;2023-05-09T11:31:16;101097.75;;;17.07;100.00
60015;BME280;45867;52.480;6.056;2023-05-09T11:33:43;101099.47;;;17.03;100.00
60015;BME280;45867;52.480;6.056;2023-05-09T11:36:26;101091.88;;;17.05;100.00
60015;BME280;45867;52.480;6.056;2023-05-09T11:39:08;101092.09;;;17.08;100.00
60015;BME280;45867;52.480;6.056;2023-05-09T11:41:50;101081.53;;;16.90;100.00
60015;BME280;45867;52.480;6.056;2023-05-09T11:44:19;101084.84;;;17.09;100.00
60015;BME280;45867;52.480;6.056;2023-05-09T11:46:46;101073.59;;;16.98;100.00
60015;BME280;45867;52.480;6.056;2023-05-09T11:49:13;101070.84;;;16.90;100.00
60015;BME280;45867;52.480;6.056;2023-05-09T11:51:39;101069.66;;;16.82;100.00
60015;BME280;45867;52.480;6.056;2023-05-09T11:54:06;101065.50;;;16.76;100.00
60015;BME280;45867;52.480;6.056;2023-05-09T11:56:34;101059.31;;;16.25;100.00
60015;BME280;45867;52.480;6.056;2023-05-09T11:58:59;101059.72;;;16.46;100.00
60015;BME280;45867;52.480;6.056;2023-05-09T12:01:27;101054.34;;;16.46;100.00
60015;BME280;45867;52.480;6.056;2023-05-09T12:03:52;101050.97;;;16.54;100.00
60015;BME280;45867;52.480;6.056;2023-05-09T12:06:18;101047.16;;;16.69;100.00
60015;BME280;45867;52.480;6.056;2023-05-09T12:08:44;101038.38;;;16.55;100.00
60015;BME280;45867;52.480;6.056;2023-05-09T12:11:10;101037.03;;;16.43;100.00
60015;BME280;45867;52.480;6.056;2023-05-09T12:13:44;101040.09;;;16.51;100.00
60015;BME280;45867;52.480;6.056;2023-05-09T12:16:09;101034.19;;;16.26;100.00
60015;BME280;45867;52.480;6.056;2023-05-09T12:18:35;101017.31;;;16.26;100.00
60015;BME280;45867;52.480;6.056;2023-05-09T12:21:00;101029.38;;;16.51;100.00
60015;BME280;45867;52.480;6.056;2023-05-09T12:23:25;101022.97;;;16.38;100.00
60015;BME280;45867;52.480;6.056;2023-05-09T12:25:55;101016.47;;;16.03;100.00
60015;BME280;45867;52.480;6.056;2023-05-09T12:28:25;101012.50;;;15.86;100.00
60015;BME280;45867;52.480;6.056;2023-05-09T12:30:51;101000.25;;;15.71;100.00
60015;BME280;45867;52.480;6.056;2023-05-09T12:33:18;100997.94;;;15.79;100.00
60015;BME280;45867;52.480;6.056;2023-05-09T12:35:47;100989.94;;;15.79;100.00
60015;BME280;45867;52.480;6.056;2023-05-09T12:38:19;100985.19;;;15.89;100.00
60015;BME280;45867;52.480;6.056;2023-05-09T12:40:47;100978.66;;;15.95;100.00
60015;BME280;45867;52.480;6.056;2023-05-09T12:43:13;100971.44;;;15.96;100.00
60015;BME280;45867;52.480;6.056;2023-05-09T12:45:38;100974.50;;;15.75;100.00
60015;BME280;45867;52.480;6.056;2023-05-09T12:48:04;100963.59;;;15.44;100.00
60015;BME280;45867;52.480;6.056;2023-05-09T12:50:31;100957.25;;;15.54;100.00
60015;BME280;45867;52.480;6.056;2023-05-09T12:53:00;100959.69;;;15.23;100.00